Data for 08/23/2017

Time Sea-Level Adjusted Pressure Absolute Pressure Temperature Relative Humidity Dew Point   
(mb) (inHg) (mb) (inHg) (C) (F) (%) (C) (F)
00:05 1022 30.18 851 25.13 17.7 63.9 33 1.4 34.4
00:10 1022 30.18 851 25.13 17.3 63.1 32 0.6 33.1
00:15 1022 30.18 851 25.13 17.4 63.3 35 2 35.6
00:20 1022 30.18 851 25.13 17.4 63.3 30 -0.4 31.3
00:25 1022 30.18 851 25.13 17.9 64.2 35 2.5 36.4
00:30 1022 30.18 851 25.13 16.6 61.9 37 2.1 35.7
00:35 1022 30.18 851 25.13 16.4 61.6 36 1.5 34.7
00:40 1022 30.18 851 25.13 16.5 61.6 36 1.5 34.8
00:45 1022 30.18 851 25.13 16.3 61.3 37 1.6 34.9
00:50 1022 30.18 851 25.13 16.1 61 36 1.2 34.2
00:55 1022 30.18 851 25.13 16.4 61.4 36 1.2 34.2
01:00 1022 30.18 851 25.13 16.3 61.4 36 1.4 34.6
01:05 1022 30.18 851 25.13 16.2 61.1 37 1.5 34.6
01:10 1022 30.18 851 25.13 15.9 60.7 38 1.7 35.1
01:15 1022 30.18 851 25.13 15.7 60.2 38 1.7 35
01:20 1022 30.18 851 25.13 15.8 60.4 35 0.4 32.7
01:25 1022 30.18 851 25.13 16.4 61.6 34 0.5 32.9
01:30 1022 30.18 851 25.13 16.6 61.8 34 0.8 33.4
01:35 1022 30.18 851 25.13 16.9 62.4 30 -0.5 31.1
01:40 1022 30.18 851 25.13 17.8 64 31 0.5 32.9
01:45 1022 30.18 851 25.13 17.5 63.5 31 0.2 32.4
01:50 1022 30.18 851 25.13 17.4 63.3 31 0.4 32.6
01:55 1022 30.18 851 25.13 17.2 63 32 0.4 32.8
02:00 1022 30.18 851 25.13 16.9 62.4 32 0.3 32.5
02:05 1022 30.18 851 25.13 16.7 62.1 34 0.8 33.5
02:10 1022 30.18 851 25.13 16.3 61.3 35 1 33.9
02:15 1022 30.18 851 25.13 16.4 61.6 33 0.1 32.2
02:20 1022 30.18 851 25.13 16.5 61.7 33 0.2 32.4
02:25 1022 30.18 851 25.13 16.4 61.4 34 0.4 32.7
02:30 1022 30.18 851 25.13 16.3 61.4 34 0.4 32.8
02:35 1022 30.18 851 25.13 16.1 60.9 35 0.5 33
02:40 1022 30.18 851 25.13 15.7 60.3 35 0.6 33.1
02:45 1022 30.18 851 25.13 15.7 60.3 35 0.2 32.4
02:50 1022 30.18 851 25.13 16 60.7 34 0.1 32.1
02:55 1022 30.18 851 25.13 16 60.8 34 0.3 32.6
03:00 1022 30.18 851 25.13 15.9 60.7 36 1.1 34.1
03:05 1022 30.18 851 25.13 16.1 61 34 0.2 32.4
03:10 1022 30.18 851 25.13 16.1 60.9 37 1.4 34.6
03:15 1022 30.18 851 25.13 15.4 59.8 36 0.7 33.3
03:20 1022 30.18 851 25.13 16 60.8 33 -0.1 31.8
03:25 1022 30.18 851 25.13 16.5 61.8 33 0.1 32.2
03:30 1022 30.18 851 25.13 16.4 61.5 33 0.1 32.2
03:35 1022 30.18 851 25.13 16.4 61.5 33 0.2 32.3
03:40 1022 30.18 851 25.13 16.1 61.1 34 0.4 32.7
03:45 1022 30.18 851 25.13 15.8 60.4 35 0.4 32.7
03:50 1022 30.18 851 25.13 15.7 60.2 35 0.3 32.5
03:55 1022 30.18 851 25.13 15.7 60.2 35 0.3 32.5
04:00 1022 30.18 851 25.13 15.5 60 36 0.6 33
04:05 1022 30.18 851 25.13 15.4 59.6 36 0.4 32.7
04:10 1022 30.18 851 25.13 15.5 59.8 35 0.3 32.5
04:15 1022 30.18 851 25.13 15.5 60 35 0.2 32.4
04:20 1022 30.18 851 25.13 15.5 59.9 36 0.7 33.3
04:25 1022 30.18 851 25.13 15.2 59.4 37 0.5 33
04:30 1022 30.18 851 25.13 15.5 59.8 35 0.1 32.3
04:35 1022 30.18 851 25.13 15.5 60 39 1.6 34.8
04:40 1022 30.18 851 25.13 14.8 58.7 41 1.7 35.1
04:45 1022 30.18 851 25.13 14.4 58 41 1.4 34.4
04:50 1022 30.18 851 25.13 14.4 58 41 1.4 34.4
04:55 1022 30.18 851 25.13 14.2 57.6 43 2 35.7
05:00 1022 30.18 851 25.13 14 57.3 39 0.4 32.8
05:05 1022 30.18 851 25.13 14.9 58.8 39 1.3 34.3
05:10 1022 30.18 851 25.13 14.8 58.7 39 1.1 33.9
05:15 1022 30.18 851 25.13 14.6 58.3 40 1.2 34.2
05:20 1022 30.18 851 25.13 14.5 58.2 40 1.2 34.2
05:25 1022 30.18 851 25.13 14.5 58.1 40 1.1 34
05:30 1022 30.18 851 25.13 14.6 58.3 38 0.5 32.9
05:35 1022 30.18 851 25.13 14.8 58.7 37 0.3 32.6
05:40 1022 30.18 851 25.13 15.1 59.2 37 0.5 32.9
05:45 1022 30.18 851 25.13 14.8 58.7 38 0.7 33.3
05:50 1022 30.18 851 25.13 14.7 58.5 38 0.5 32.8
05:55 1022 30.18 851 25.13 14.7 58.4 39 1 33.9
06:00 1022 30.18 851 25.13 14.2 57.5 40 1 33.9
06:05 1022 30.18 851 25.13 14.2 57.6 39 0.4 32.7
06:10 1022 30.18 851 25.13 14.5 58 39 0.6 33.1
06:15 1022 30.18 851 25.13 14.4 57.9 40 0.9 33.7
06:20 1022 30.18 851 25.13 14.2 57.5 40 0.9 33.6
06:25 1022 30.18 851 25.13 14.1 57.3 41 1.1 34
06:30 1022 30.18 851 25.13 13.9 57 41 1 33.8
06:35 1022 30.18 851 25.13 13.9 57 41 1.1 33.9
06:40 1022 30.18 851 25.13 13.8 56.9 41 0.9 33.6
06:45 1022 30.18 851 25.13 13.9 57 41 0.9 33.6
06:50 1022 30.18 851 25.13 14 57.1 40 0.8 33.5
06:55 1022 30.18 851 25.13 14 57.1 41 1.1 34
07:00 1022 30.18 851 25.13 13.8 56.9 42 1.1 34
07:05 1022 30.18 852 25.16 13.9 57 41 0.9 33.6
07:10 1022 30.18 852 25.16 14.1 57.4 40 0.7 33.3
07:15 1022 30.18 852 25.16 14.3 57.8 39 0.8 33.4
07:20 1022 30.18 852 25.16 14.4 57.9 38 0.5 32.9
07:25 1022 30.18 852 25.16 14.7 58.4 39 1 33.8
07:30 1022 30.18 852 25.16 14.6 58.3 39 0.9 33.7
07:35 1022 30.18 852 25.16 14.7 58.5 38 0.8 33.5
07:40 1023 30.21 852 25.16 14.8 58.7 39 1.1 33.9
07:45 1023 30.21 852 25.16 14.9 58.8 38 0.9 33.7
07:50 1023 30.21 852 25.16 15.1 59.2 38 0.9 33.6
07:55 1023 30.21 852 25.16 15.3 59.6 38 1.1 33.9
08:00 1023 30.21 852 25.16 15.5 59.9 37 0.8 33.5
08:05 1023 30.21 852 25.16 15.7 60.2 35 0.6 33
08:10 1023 30.21 852 25.16 15.8 60.5 37 1.2 34.2
08:15 1023 30.21 852 25.16 15.8 60.5 36 0.8 33.5
08:20 1023 30.21 852 25.16 15.8 60.5 37 1.3 34.4
08:25 1023 30.21 852 25.16 15.9 60.6 38 1.7 35.1
08:30 1023 30.21 852 25.16 16 60.7 37 1.5 34.7
08:35 1023 30.21 852 25.16 16.3 61.4 37 1.8 35.2
08:40 1023 30.21 852 25.16 16.7 62.1 34 0.8 33.5
08:45 1023 30.21 852 25.16 17.1 62.9 34 1.2 34.1
08:50 1023 30.21 852 25.16 17.5 63.6 36 2.3 36.1
08:55 1023 30.21 852 25.16 17.6 63.7 35 2.1 35.7
09:00 1023 30.21 852 25.16 17.8 64 35 2.1 35.9
09:05 1023 30.21 852 25.16 18.1 64.5 36 3.1 37.5
09:10 1023 30.21 852 25.16 18.3 64.9 36 2.9 37.3
09:15 1023 30.21 852 25.16 18.5 65.2 36 3.4 38.1
09:20 1023 30.21 852 25.16 18.7 65.6 37 3.9 39.1
09:25 1023 30.21 852 25.16 19.1 66.4 33 2.8 37
09:30 1023 30.21 852 25.16 19.8 67.6 32 2.9 37.2
09:35 1023 30.21 852 25.16 20.7 69.2 27 1.3 34.3
09:40 1023 30.21 852 25.16 20.8 69.5 29 2.4 36.3
09:45 1023 30.21 852 25.16 21.2 70.2 27 1.8 35.2
09:50 1023 30.21 852 25.16 21.4 70.5 27 2 35.5
09:55 1023 30.21 852 25.16 21.8 71.3 27 2.2 36
10:00 1023 30.21 852 25.16 22.2 72 27 2.4 36.2
10:05 1023 30.21 852 25.16 22 71.5 27 2.1 35.7
10:10 1023 30.21 852 25.16 22.5 72.4 26 2.3 36.2
10:15 1023 30.21 852 25.16 22.2 71.9 28 2.8 37
10:20 1023 30.21 852 25.16 22.5 72.5 27 2.8 37.1
10:25 1023 30.21 852 25.16 22.9 73.2 25 2.3 36.1
10:30 1023 30.21 852 25.16 23.3 73.9 25 2.4 36.4
10:35 1022 30.18 852 25.16 23.5 74.3 26 3.2 37.8
10:40 1022 30.18 852 25.16 23.3 73.9 26 3 37.3
10:45 1022 30.18 852 25.16 22.9 73.2 25 2.2 36
10:50 1022 30.18 852 25.16 23 73.5 24 1.4 34.5
10:55 1022 30.18 852 25.16 24 75.3 23 2 35.5
11:00 1022 30.18 851 25.13 24.7 76.4 21 1.4 34.4
11:05 1022 30.18 851 25.13 24.5 76 22 1.6 34.9
11:10 1022 30.18 851 25.13 24.8 76.7 23 2.8 37.1
11:15 1022 30.18 851 25.13 24.8 76.6 24 2.8 37.1
11:20 1022 30.18 851 25.13 24.5 76.1 22 1.9 35.4
11:25 1022 30.18 851 25.13 24.8 76.6 22 1.8 35.3
11:30 1022 30.18 851 25.13 25 77 20 0.9 33.7
11:35 1022 30.18 851 25.13 25.3 77.5 20 1.2 34.1
11:40 1022 30.18 851 25.13 24.6 76.3 21 1.3 34.4
11:45 1022 30.18 851 25.13 25.4 77.6 20 1.1 34
11:50 1022 30.18 851 25.13 25.8 78.5 20 1.6 34.9
11:55 1022 30.18 851 25.13 25.7 78.3 20 1.3 34.3
12:00 1022 30.18 851 25.13 25.6 78.1 20 1.5 34.7
12:05 1022 30.18 851 25.13 25.9 78.7 20 1.3 34.4
12:10 1022 30.18 851 25.13 26.7 80 18 0.9 33.6
12:15 1022 30.18 851 25.13 27.2 81 18 1.4 34.6
12:20 1022 30.18 851 25.13 27.2 80.9 17 0.6 33
12:25 1022 30.18 851 25.13 27.5 81.4 18 1 33.9
12:30 1022 30.18 851 25.13 28.2 82.8 17 1.1 34
12:35 1022 30.18 851 25.13 28.1 82.5 16 -0.2 31.7
12:40 1022 30.18 851 25.13 27.7 81.8 18 1.2 34.2
12:45 1021 30.15 851 25.13 27.4 81.3 17 0.5 32.9
12:50 1021 30.15 851 25.13 28 82.4 17 0.9 33.6
12:55 1021 30.15 851 25.13 28.5 83.2 17 1.1 34
13:00 1021 30.15 851 25.13 28.5 83.4 15 -0.2 31.6
13:05 1021 30.15 850 25.1 28.8 83.9 14 -0.9 30.3
13:10 1021 30.15 850 25.1 29.2 84.6 14 -0.2 31.6
13:15 1021 30.15 850 25.1 29.8 85.6 13 -1 30.1
13:20 1021 30.15 850 25.1 29.8 85.6 14 -0.6 30.9
13:25 1021 30.15 850 25.1 29.9 85.7 14 -0.4 31.3
13:30 1021 30.15 850 25.1 29.9 85.8 13 -1.3 29.6
13:35 1021 30.15 850 25.1 30 86 13 -1.2 29.8
13:40 1021 30.15 850 25.1 29.8 85.6 13 -1.6 29.1
13:45 1021 30.15 850 25.1 29.9 85.8 13 -1.5 29.2
13:50 1021 30.15 850 25.1 30.2 86.4 12 -1.8 28.8
13:55 1021 30.15 850 25.1 30.4 86.7 12 -2 28.4
14:00 1021 30.15 850 25.1 30.6 87 11 -3.3 26
14:05 1021 30.15 850 25.1 30.9 87.6 11 -2.1 28.2
14:10 1021 30.15 850 25.1 30.8 87.4 11 -3 26.6
14:15 1020 30.12 850 25.1 30.8 87.4 11 -2.5 27.4
14:20 1020 30.12 850 25.1 30.6 87.1 10 -4.4 24.1
14:25 1020 30.12 850 25.1 30.9 87.6 10 -4.1 24.7
14:30 1020 30.12 849 25.07 30.9 87.7 10 -3.3 26
14:35 1020 30.12 849 25.07 31.3 88.3 11 -2.7 27.2
14:40 1020 30.12 849 25.07 31.6 88.8 10 -3.8 25.1
14:45 1020 30.12 849 25.07 31.4 88.5 11 -2.5 27.6
14:50 1020 30.12 849 25.07 30 86 12 -2.5 27.5
14:55 1020 30.12 849 25.07 29.7 85.4 11 -3.1 26.4
15:00 1020 30.12 849 25.07 30.9 87.6 11 -2.6 27.3
15:05 1020 30.12 849 25.07 30.3 86.5 12 -2 28.4
15:10 1020 30.12 849 25.07 29.8 85.6 13 -1.7 29
15:15 1020 30.12 849 25.07 30.2 86.4 12 -2.2 28.1
15:20 1020 30.12 849 25.07 30.7 87.2 11 -2.3 27.9
15:25 1020 30.12 849 25.07 30.9 87.6 12 -1.8 28.8
15:30 1020 30.12 849 25.07 30.4 86.8 12 -2.3 27.9
15:35 1019 30.09 849 25.07 30.2 86.4 12 -1.6 29.1
15:40 1019 30.09 849 25.07 30.3 86.5 12 -2.4 27.6
15:45 1019 30.09 849 25.07 30.4 86.7 12 -1.9 28.5
15:50 1019 30.09 848 25.04 30.7 87.3 11 -2.2 28.1
15:55 1019 30.09 848 25.04 31.2 88.2 11 -2.2 28
16:00 1019 30.09 848 25.04 31.5 88.6 11 -2 28.3
16:05 1019 30.09 848 25.04 31.3 88.3 12 -1.3 29.7
16:10 1019 30.09 848 25.04 30.9 87.6 12 -1.6 29.2
16:15 1019 30.09 848 25.04 30.6 87 11 -2.9 26.8
16:20 1019 30.09 848 25.04 29.6 85.3 13 -1.8 28.7
16:25 1019 30.09 848 25.04 29.7 85.4 13 -1.7 28.9
16:30 1019 30.09 848 25.04 30 86 12 -2.1 28.1
16:35 1019 30.09 848 25.04 30.2 86.4 12 -1.9 28.6
16:40 1019 30.09 848 25.04 30.4 86.8 12 -2 28.4
16:45 1019 30.09 848 25.04 30.7 87.2 12 -1.7 28.9
16:50 1019 30.09 848 25.04 30.9 87.7 12 -1.7 29
16:55 1019 30.09 848 25.04 31 87.7 11 -2.5 27.5
17:00 1019 30.09 848 25.04 30.9 87.7 11 -3 26.6
17:05 1019 30.09 848 25.04 31.1 87.9 11 -2.5 27.5
17:10 1019 30.09 848 25.04 31.3 88.3 10 -3.5 25.7
17:15 1019 30.09 848 25.04 30.9 87.7 11 -2.4 27.7
17:20 1019 30.09 848 25.04 30.4 86.8 10 -3.7 25.3
17:25 1019 30.09 848 25.04 30.2 86.4 11 -3.4 25.8
17:30 1019 30.09 848 25.04 30.2 86.4 11 -3 26.6
17:35 1019 30.09 848 25.04 30.2 86.3 11 -3.2 26.2
17:40 1019 30.09 848 25.04 30.2 86.3 12 -2.6 27.3
17:45 1019 30.09 848 25.04 30 86 12 -2.7 27.1
17:50 1019 30.09 848 25.04 30 86 11 -2.8 26.9
17:55 1019 30.09 848 25.04 30.1 86.2 12 -2.4 27.8
18:00 1019 30.09 848 25.04 30.1 86.2 12 -1.8 28.7
18:05 1019 30.09 848 25.04 29.9 85.7 11 -2.9 26.8
18:10 1019 30.09 848 25.04 29.7 85.4 12 -2.6 27.2
18:15 1019 30.09 848 25.04 29.5 85.1 12 -2.8 26.9
18:20 1019 30.09 848 25.04 29.4 84.9 12 -2.3 27.9
18:25 1019 30.09 848 25.04 29.2 84.5 13 -1.2 29.8
18:30 1019 30.09 848 25.04 28.8 83.8 14 -1.1 30
18:35 1019 30.09 848 25.04 28.5 83.2 14 -1.5 29.3
18:40 1019 30.09 848 25.04 28.2 82.7 15 -1 30.3
18:45 1019 30.09 848 25.04 27.9 82.3 17 0.8 33.5
18:50 1019 30.09 848 25.04 27.5 81.4 18 1.4 34.6
18:55 1019 30.09 848 25.04 27 80.7 20 2.1 35.8
19:00 1019 30.09 848 25.04 26.8 80.3 19 1.8 35.3
19:05 1019 30.09 848 25.04 26.8 80.3 19 1.7 35.1
19:10 1019 30.09 848 25.04 26.8 80.2 20 2.4 36.3
19:15 1019 30.09 848 25.04 26.7 80 20 2.2 36
19:20 1019 30.09 848 25.04 26.6 79.8 21 2.6 36.8
19:25 1018 30.06 848 25.04 26.4 79.4 22 3.4 38.1
19:30 1019 30.09 848 25.04 26.1 79 23 3.5 38.2
19:35 1019 30.09 848 25.04 25.9 78.6 23 3.2 37.8
19:40 1019 30.09 848 25.04 25.7 78.3 23 3.1 37.5
19:45 1019 30.09 848 25.04 25.8 78.5 22 2.6 36.7
19:50 1019 30.09 848 25.04 25.8 78.5 22 2.8 37.1
19:55 1019 30.09 848 25.04 25.7 78.3 22 2.9 37.2
20:00 1019 30.09 848 25.04 25.5 77.9 23 3 37.4
20:05 1019 30.09 848 25.04 25.3 77.5 23 2.7 36.9
20:10 1019 30.09 848 25.04 25.2 77.4 23 3 37.4
20:15 1019 30.09 848 25.04 25 77 24 3.2 37.7
20:20 1018 30.06 848 25.04 24.8 76.7 23 2.7 36.8
20:25 1018 30.06 848 25.04 25 77.1 22 2.1 35.8
20:30 1018 30.06 848 25.04 25.4 77.7 23 2.8 37.1
20:35 1019 30.09 848 25.04 25.2 77.3 23 2.9 37.1
20:40 1019 30.09 848 25.04 24.8 76.7 23 2.7 36.9
20:45 1019 30.09 848 25.04 24.7 76.4 26 4.4 39.9
20:50 1019 30.09 848 25.04 23.7 74.7 26 3.1 37.6
20:55 1019 30.09 848 25.04 23.9 75.1 23 1.5 34.8
21:00 1019 30.09 848 25.04 24.3 75.8 23 2.3 36.2
21:05 1019 30.09 848 25.04 24.1 75.3 24 2.2 35.9
21:10 1019 30.09 848 25.04 24.1 75.5 24 2.3 36.2
21:15 1019 30.09 848 25.04 24.5 76.1 23 2.5 36.5
21:20 1019 30.09 848 25.04 24.2 75.6 25 3.2 37.7
21:25 1019 30.09 848 25.04 23.8 74.8 23 1.6 34.9
21:30 1019 30.09 848 25.04 24.4 76 24 2.9 37.2
21:35 1019 30.09 848 25.04 24 75.2 25 3.2 37.8
21:40 1019 30.09 848 25.04 23.7 74.6 26 3.5 38.3
21:45 1019 30.09 848 25.04 23.3 73.9 28 3.8 38.9
21:50 1019 30.09 848 25.04 22.8 73 27 3.2 37.8
21:55 1019 30.09 848 25.04 22.5 72.6 31 4.7 40.5
22:00 1019 30.09 848 25.04 22.6 72.6 28 3.1 37.6
22:05 1019 30.09 848 25.04 22.5 72.6 29 4 39.3
22:10 1019 30.09 848 25.04 22.1 71.8 29 3.3 38
22:15 1019 30.09 848 25.04 22.3 72.1 27 2.5 36.6
22:20 1019 30.09 848 25.04 22.8 73 25 2.2 36
22:25 1019 30.09 848 25.04 23.1 73.5 25 2.4 36.4
22:30 1019 30.09 848 25.04 22.8 73.1 27 3.1 37.6
22:35 1019 30.09 848 25.04 22.3 72.2 28 3.3 37.9
22:40 1019 30.09 848 25.04 21.5 70.7 31 3.9 39
22:45 1019 30.09 848 25.04 21.2 70.1 28 2.4 36.3
22:50 1019 30.09 848 25.04 21.4 70.6 30 3.1 37.7
22:55 1019 30.09 848 25.04 21 69.9 31 3.4 38.1
23:00 1019 30.09 848 25.04 20.5 69 32 3.4 38.2